sensor_id;sensor_type;location;lat;lon;timestamp;pressure;altitude;pressure_sealevel;temperature;humidity
35443;BME280;21561;55.654;37.592;2023-07-20T00:02:04;97990.75;;;13.23;96.53
35443;BME280;21561;55.654;37.592;2023-07-20T00:04:32;97992.53;;;13.21;96.99
35443;BME280;21561;55.654;37.592;2023-07-20T00:06:59;97983.84;;;13.22;96.88
35443;BME280;21561;55.654;37.592;2023-07-20T00:09:29;97996.97;;;13.18;96.90
35443;BME280;21561;55.654;37.592;2023-07-20T00:11:56;97981.34;;;13.18;96.97
35443;BME280;21561;55.654;37.592;2023-07-20T00:14:23;97994.53;;;13.15;97.55
35443;BME280;21561;55.654;37.592;2023-07-20T00:16:50;97984.97;;;13.16;97.23
35443;BME280;21561;55.654;37.592;2023-07-20T00:19:27;98002.34;;;13.15;97.53
35443;BME280;21561;55.654;37.592;2023-07-20T00:21:54;97984.25;;;13.12;97.44
35443;BME280;21561;55.654;37.592;2023-07-20T00:24:21;97992.00;;;13.14;97.28
35443;BME280;21561;55.654;37.592;2023-07-20T00:26:49;97984.25;;;13.12;97.34
35443;BME280;21561;55.654;37.592;2023-07-20T00:29:16;97989.47;;;13.12;97.25
35443;BME280;21561;55.654;37.592;2023-07-20T00:31:43;97996.44;;;13.12;97.19
35443;BME280;21561;55.654;37.592;2023-07-20T00:34:10;98000.78;;;13.11;97.58
35443;BME280;21561;55.654;37.592;2023-07-20T00:36:38;98007.03;;;13.07;97.75
35443;BME280;21561;55.654;37.592;2023-07-20T00:39:05;97992.41;;;13.05;97.93
35443;BME280;21561;55.654;37.592;2023-07-20T00:41:32;98005.59;;;13.00;98.51
35443;BME280;21561;55.654;37.592;2023-07-20T00:43:59;98009.09;;;12.99;98.60
35443;BME280;21561;55.654;37.592;2023-07-20T00:46:26;97997.03;;;12.98;98.42
35443;BME280;21561;55.654;37.592;2023-07-20T00:48:54;98002.22;;;12.98;98.47
35443;BME280;21561;55.654;37.592;2023-07-20T00:51:23;97995.47;;;12.94;99.05
35443;BME280;21561;55.654;37.592;2023-07-20T00:53:50;97997.28;;;12.92;99.08
35443;BME280;21561;55.654;37.592;2023-07-20T00:56:17;97993.00;;;12.91;99.24
35443;BME280;21561;55.654;37.592;2023-07-20T00:58:44;97990.50;;;12.88;99.21
35443;BME280;21561;55.654;37.592;2023-07-20T01:01:12;98000.91;;;12.88;99.55
35443;BME280;21561;55.654;37.592;2023-07-20T01:03:39;98001.03;;;12.85;99.62
35443;BME280;21561;55.654;37.592;2023-07-20T01:06:47;97989.66;;;12.87;99.98
35443;BME280;21561;55.654;37.592;2023-07-20T01:09:34;97989.66;;;12.87;99.90
35443;BME280;21561;55.654;37.592;2023-07-20T01:14:43;97991.03;;;12.75;100.00
35443;BME280;21561;55.654;37.592;2023-07-20T01:17:10;97992.91;;;12.72;100.00
35443;BME280;21561;55.654;37.592;2023-07-20T01:19:37;97986.09;;;12.69;100.00
35443;BME280;21561;55.654;37.592;2023-07-20T01:31:20;97997.34;;;12.70;100.00
35443;BME280;21561;55.654;37.592;2023-07-20T01:33:50;97986.22;;;12.66;100.00
35443;BME280;21561;55.654;37.592;2023-07-20T01:36:19;98001.00;;;12.66;100.00
35443;BME280;21561;55.654;37.592;2023-07-20T01:38:49;98007.09;;;12.65;100.00
35443;BME280;21561;55.654;37.592;2023-07-20T01:41:16;98008.03;;;12.64;100.00
35443;BME280;21561;55.654;37.592;2023-07-20T01:43:44;98003.78;;;12.61;100.00
35443;BME280;21561;55.654;37.592;2023-07-20T01:46:11;98000.41;;;12.59;100.00
35443;BME280;21561;55.654;37.592;2023-07-20T01:48:38;98002.22;;;12.57;100.00
35443;BME280;21561;55.654;37.592;2023-07-20T01:51:05;97997.13;;;12.54;100.00
35443;BME280;21561;55.654;37.592;2023-07-20T01:53:32;98004.88;;;12.55;100.00
35443;BME280;21561;55.654;37.592;2023-07-20T01:56:00;97997.28;;;12.51;100.00
35443;BME280;21561;55.654;37.592;2023-07-20T01:58:27;97998.97;;;12.52;100.00
35443;BME280;21561;55.654;37.592;2023-07-20T02:00:54;98012.88;;;12.51;100.00
35443;BME280;21561;55.654;37.592;2023-07-20T02:03:21;98007.69;;;12.51;100.00
35443;BME280;21561;55.654;37.592;2023-07-20T02:05:48;98007.81;;;12.48;100.00
35443;BME280;21561;55.654;37.592;2023-07-20T02:08:15;98007.81;;;12.48;100.00
35443;BME280;21561;55.654;37.592;2023-07-20T02:10:45;98011.31;;;12.47;100.00
35443;BME280;21561;55.654;37.592;2023-07-20T02:13:12;97992.31;;;12.45;100.00
35443;BME280;21561;55.654;37.592;2023-07-20T02:15:39;98001.03;;;12.44;100.00
35443;BME280;21561;55.654;37.592;2023-07-20T02:18:07;98014.94;;;12.43;100.00
35443;BME280;21561;55.654;37.592;2023-07-20T02:20:34;98000.25;;;12.41;100.00
35443;BME280;21561;55.654;37.592;2023-07-20T02:23:02;98005.44;;;12.41;100.00
35443;BME280;21561;55.654;37.592;2023-07-20T02:25:29;98004.44;;;12.46;100.00
35443;BME280;21561;55.654;37.592;2023-07-20T02:27:56;98025.09;;;12.49;100.00
35443;BME280;21561;55.654;37.592;2023-07-20T02:30:23;98017.28;;;12.49;100.00
35443;BME280;21561;55.654;37.592;2023-07-20T02:32:50;98000.91;;;12.47;100.00
35443;BME280;21561;55.654;37.592;2023-07-20T02:35:17;98010.53;;;12.45;100.00
35443;BME280;21561;55.654;37.592;2023-07-20T02:37:44;98021.00;;;12.43;100.00
35443;BME280;21561;55.654;37.592;2023-07-20T02:40:12;98000.19;;;12.43;100.00
35443;BME280;21561;55.654;37.592;2023-07-20T02:42:39;98014.84;;;12.46;100.00
35443;BME280;21561;55.654;37.592;2023-07-20T02:45:06;98030.28;;;12.49;100.00
35443;BME280;21561;55.654;37.592;2023-07-20T02:47:35;98019.00;;;12.50;100.00
35443;BME280;21561;55.654;37.592;2023-07-20T02:50:02;98018.81;;;12.54;100.00
35443;BME280;21561;55.654;37.592;2023-07-20T02:52:31;98023.88;;;12.57;100.00
35443;BME280;21561;55.654;37.592;2023-07-20T02:54:58;98024.75;;;12.58;100.00
35443;BME280;21561;55.654;37.592;2023-07-20T02:57:26;98028.91;;;12.62;100.00
35443;BME280;21561;55.654;37.592;2023-07-20T02:59:53;98024.47;;;12.64;100.00
35443;BME280;21561;55.654;37.592;2023-07-20T03:02:21;98024.34;;;12.67;100.00
35443;BME280;21561;55.654;37.592;2023-07-20T03:04:48;98020.72;;;12.71;100.00
35443;BME280;21561;55.654;37.592;2023-07-20T03:07:15;98028.34;;;12.76;100.00
35443;BME280;21561;55.654;37.592;2023-07-20T03:09:45;98027.34;;;12.78;100.00
35443;BME280;21561;55.654;37.592;2023-07-20T03:12:12;98042.84;;;12.82;100.00
35443;BME280;21561;55.654;37.592;2023-07-20T03:14:39;98031.38;;;12.86;100.00
35443;BME280;21561;55.654;37.592;2023-07-20T03:17:06;98033.00;;;12.88;100.00
35443;BME280;21561;55.654;37.592;2023-07-20T03:19:33;98033.59;;;12.95;100.00
35443;BME280;21561;55.654;37.592;2023-07-20T03:22:00;98036.06;;;12.98;100.00
35443;BME280;21561;55.654;37.592;2023-07-20T03:24:27;98054.03;;;13.04;100.00
35443;BME280;21561;55.654;37.592;2023-07-20T03:26:54;98042.59;;;13.08;100.00
35443;BME280;21561;55.654;37.592;2023-07-20T03:29:21;98043.16;;;13.15;100.00
35443;BME280;21561;55.654;37.592;2023-07-20T03:31:48;98037.63;;;13.23;100.00
35443;BME280;21561;55.654;37.592;2023-07-20T03:34:15;98058.31;;;13.26;100.00
35443;BME280;21561;55.654;37.592;2023-07-20T03:36:42;98044.25;;;13.30;100.00
35443;BME280;21561;55.654;37.592;2023-07-20T03:39:09;98047.44;;;13.36;99.33
35443;BME280;21561;55.654;37.592;2023-07-20T03:41:36;98043.72;;;13.42;99.74
35443;BME280;21561;55.654;37.592;2023-07-20T03:44:03;98043.47;;;13.48;99.14
35443;BME280;21561;55.654;37.592;2023-07-20T03:46:30;98051.06;;;13.53;98.07
35443;BME280;21561;55.654;37.592;2023-07-20T03:48:57;98038.69;;;13.58;98.46
35443;BME280;21561;55.654;37.592;2023-07-20T03:51:24;98039.38;;;13.62;98.32
35443;BME280;21561;55.654;37.592;2023-07-20T03:53:51;98029.53;;;13.68;97.40
35443;BME280;21561;55.654;37.592;2023-07-20T03:56:18;98045.75;;;13.75;97.17
35443;BME280;21561;55.654;37.592;2023-07-20T03:58:45;98045.47;;;13.81;96.53
35443;BME280;21561;55.654;37.592;2023-07-20T04:01:12;98047.81;;;13.87;96.04
35443;BME280;21561;55.654;37.592;2023-07-20T04:03:39;98032.78;;;13.92;95.53
35443;BME280;21561;55.654;37.592;2023-07-20T04:06:06;98045.47;;;14.00;95.42
35443;BME280;21561;55.654;37.592;2023-07-20T04:08:36;98054.78;;;14.06;94.97
35443;BME280;21561;55.654;37.592;2023-07-20T04:11:04;98065.91;;;14.09;93.99
35443;BME280;21561;55.654;37.592;2023-07-20T04:13:31;98056.25;;;14.11;94.10
35443;BME280;21561;55.654;37.592;2023-07-20T04:16:01;98084.78;;;14.15;94.05
35443;BME280;21561;55.654;37.592;2023-07-20T04:18:29;98066.47;;;14.16;93.67
35443;BME280;21561;55.654;37.592;2023-07-20T04:20:56;98071.69;;;14.16;93.76
35443;BME280;21561;55.654;37.592;2023-07-20T04:23:23;98055.16;;;14.16;94.44
35443;BME280;21561;55.654;37.592;2023-07-20T04:25:51;98054.97;;;14.20;93.63
35443;BME280;21561;55.654;37.592;2023-07-20T04:28:18;98053.06;;;14.24;93.50
35443;BME280;21561;55.654;37.592;2023-07-20T04:30:48;98062.50;;;14.26;93.45
35443;BME280;21561;55.654;37.592;2023-07-20T04:33:16;98060.13;;;14.22;93.99
35443;BME280;21561;55.654;37.592;2023-07-20T04:35:54;98065.03;;;14.28;93.39
35443;BME280;21561;55.654;37.592;2023-07-20T04:38:21;98063.56;;;14.22;93.94
35443;BME280;21561;55.654;37.592;2023-07-20T04:40:49;98071.38;;;14.22;93.38
35443;BME280;21561;55.654;37.592;2023-07-20T04:43:17;98072.31;;;14.21;93.66
35443;BME280;21561;55.654;37.592;2023-07-20T04:45:45;98081.81;;;14.22;92.10
35443;BME280;21561;55.654;37.592;2023-07-20T04:48:16;98073.78;;;14.27;92.25
35443;BME280;21561;55.654;37.592;2023-07-20T04:50:45;98056.28;;;14.29;92.08
35443;BME280;21561;55.654;37.592;2023-07-20T04:53:12;98066.44;;;14.35;92.27
35443;BME280;21561;55.654;37.592;2023-07-20T04:55:40;98055.72;;;14.41;91.94
35443;BME280;21561;55.654;37.592;2023-07-20T04:58:07;98057.94;;;14.49;91.80
35443;BME280;21561;55.654;37.592;2023-07-20T05:00:35;98069.84;;;14.55;90.10
35443;BME280;21561;55.654;37.592;2023-07-20T05:03:02;98068.81;;;14.59;89.07
35443;BME280;21561;55.654;37.592;2023-07-20T05:05:29;98057.25;;;14.64;89.48
35443;BME280;21561;55.654;37.592;2023-07-20T05:07:56;98076.13;;;14.69;88.40
35443;BME280;21561;55.654;37.592;2023-07-20T05:10:24;98072.44;;;14.74;88.91
35443;BME280;21561;55.654;37.592;2023-07-20T05:12:51;98066.06;;;14.79;87.87
35443;BME280;21561;55.654;37.592;2023-07-20T05:15:17;98063.22;;;14.84;87.43
35443;BME280;21561;55.654;37.592;2023-07-20T05:17:45;98060.38;;;14.88;86.23
35443;BME280;21561;55.654;37.592;2023-07-20T05:20:12;98067.06;;;14.94;86.28
35443;BME280;21561;55.654;37.592;2023-07-20T05:22:39;98071.22;;;14.98;84.96
35443;BME280;21561;55.654;37.592;2023-07-20T05:25:07;98078.00;;;15.02;85.39
35443;BME280;21561;55.654;37.592;2023-07-20T05:27:36;98069.97;;;15.05;85.62
35443;BME280;21561;55.654;37.592;2023-07-20T05:30:04;98077.53;;;15.12;84.33
35443;BME280;21561;55.654;37.592;2023-07-20T05:32:32;98063.06;;;15.22;84.55
35443;BME280;21561;55.654;37.592;2023-07-20T05:34:59;98080.19;;;15.27;82.77
35443;BME280;21561;55.654;37.592;2023-07-20T05:37:26;98072.19;;;15.31;81.58
35443;BME280;21561;55.654;37.592;2023-07-20T05:39:53;98085.88;;;15.36;80.34
35443;BME280;21561;55.654;37.592;2023-07-20T05:42:20;98065.63;;;15.39;80.85
35443;BME280;21561;55.654;37.592;2023-07-20T05:44:47;98075.88;;;15.44;80.62
35443;BME280;21561;55.654;37.592;2023-07-20T05:47:14;98057.56;;;15.44;79.93
35443;BME280;21561;55.654;37.592;2023-07-20T05:49:41;98088.38;;;15.55;79.76
35443;BME280;21561;55.654;37.592;2023-07-20T05:52:08;98066.44;;;15.57;79.35
35443;BME280;21561;55.654;37.592;2023-07-20T05:54:35;98060.91;;;15.63;78.79
35443;BME280;21561;55.654;37.592;2023-07-20T05:57:02;98058.50;;;15.76;79.81
35443;BME280;21561;55.654;37.592;2023-07-20T05:59:29;98060.72;;;15.84;78.25
35443;BME280;21561;55.654;37.592;2023-07-20T06:01:56;98089.94;;;15.92;76.00
35443;BME280;21561;55.654;37.592;2023-07-20T06:04:24;98072.38;;;15.94;73.28
35443;BME280;21561;55.654;37.592;2023-07-20T06:06:51;98090.25;;;16.02;74.74
35443;BME280;21561;55.654;37.592;2023-07-20T06:09:18;98086.88;;;16.00;74.53
35443;BME280;21561;55.654;37.592;2023-07-20T06:11:45;98088.59;;;16.01;73.55
35443;BME280;21561;55.654;37.592;2023-07-20T06:14:12;98083.34;;;16.01;73.01
35443;BME280;21561;55.654;37.592;2023-07-20T06:16:39;98105.81;;;16.05;72.34
35443;BME280;21561;55.654;37.592;2023-07-20T06:19:06;98087.25;;;16.10;71.76
35443;BME280;21561;55.654;37.592;2023-07-20T06:21:33;98084.38;;;16.14;71.13
35443;BME280;21561;55.654;37.592;2023-07-20T06:24:00;98104.97;;;16.20;71.35
35443;BME280;21561;55.654;37.592;2023-07-20T06:26:27;98078.63;;;16.23;70.99
35443;BME280;21561;55.654;37.592;2023-07-20T06:28:56;98081.84;;;16.29;70.75
35443;BME280;21561;55.654;37.592;2023-07-20T06:31:23;98079.13;;;16.30;69.71
35443;BME280;21561;55.654;37.592;2023-07-20T06:33:50;98079.66;;;16.37;70.89
35443;BME280;21561;55.654;37.592;2023-07-20T06:36:18;98073.72;;;16.49;70.37
35443;BME280;21561;55.654;37.592;2023-07-20T06:38:45;98103.94;;;16.55;68.55
35443;BME280;21561;55.654;37.592;2023-07-20T06:41:31;98075.06;;;16.56;68.74
35443;BME280;21561;55.654;37.592;2023-07-20T06:44:02;98089.75;;;16.59;67.44
35443;BME280;21561;55.654;37.592;2023-07-20T06:46:29;98094.75;;;16.64;66.56
35443;BME280;21561;55.654;37.592;2023-07-20T06:48:56;98093.78;;;16.65;67.12
35443;BME280;21561;55.654;37.592;2023-07-20T06:51:26;98094.38;;;16.70;67.62
35443;BME280;21561;55.654;37.592;2023-07-20T06:53:53;98081.88;;;16.75;67.36
35443;BME280;21561;55.654;37.592;2023-07-20T06:56:20;98070.94;;;16.83;67.17
35443;BME280;21561;55.654;37.592;2023-07-20T06:58:51;98080.06;;;16.91;66.78
35443;BME280;21561;55.654;37.592;2023-07-20T07:01:18;98077.88;;;17.00;65.64
35443;BME280;21561;55.654;37.592;2023-07-20T07:03:48;98097.53;;;17.07;64.95
35443;BME280;21561;55.654;37.592;2023-07-20T07:06:19;98092.50;;;17.18;65.36
35443;BME280;21561;55.654;37.592;2023-07-20T07:08:48;98086.72;;;17.27;63.10
35443;BME280;21561;55.654;37.592;2023-07-20T07:11:15;98098.69;;;17.31;65.51
35443;BME280;21561;55.654;37.592;2023-07-20T07:13:42;98087.38;;;17.31;64.83
35443;BME280;21561;55.654;37.592;2023-07-20T07:16:09;98112.38;;;17.36;64.55
35443;BME280;21561;55.654;37.592;2023-07-20T07:18:36;98093.75;;;17.41;64.45
35443;BME280;21561;55.654;37.592;2023-07-20T07:21:03;98111.25;;;17.41;61.24
35443;BME280;21561;55.654;37.592;2023-07-20T07:23:30;98104.72;;;17.48;61.47
35443;BME280;21561;55.654;37.592;2023-07-20T07:25:57;98102.88;;;17.50;62.32
35443;BME280;21561;55.654;37.592;2023-07-20T07:28:24;98096.50;;;17.54;61.62
35443;BME280;21561;55.654;37.592;2023-07-20T07:30:51;98092.38;;;17.64;62.55
35443;BME280;21561;55.654;37.592;2023-07-20T07:33:18;98095.28;;;17.74;62.30
35443;BME280;21561;55.654;37.592;2023-07-20T07:35:45;98092.16;;;17.82;61.88
35443;BME280;21561;55.654;37.592;2023-07-20T07:38:11;98092.50;;;17.91;62.38
35443;BME280;21561;55.654;37.592;2023-07-20T07:40:59;98110.19;;;18.02;62.52
35443;BME280;21561;55.654;37.592;2023-07-20T07:43:26;98100.63;;;18.01;60.00
35443;BME280;21561;55.654;37.592;2023-07-20T07:45:54;98106.63;;;18.03;59.22
35443;BME280;21561;55.654;37.592;2023-07-20T07:48:22;98129.72;;;17.98;57.46
35443;BME280;21561;55.654;37.592;2023-07-20T07:50:49;98098.22;;;17.98;58.25
35443;BME280;21561;55.654;37.592;2023-07-20T07:53:16;98129.31;;;18.04;58.18
35443;BME280;21561;55.654;37.592;2023-07-20T07:55:44;98091.25;;;18.11;58.09
35443;BME280;21561;55.654;37.592;2023-07-20T07:58:11;98090.00;;;18.17;58.36
35443;BME280;21561;55.654;37.592;2023-07-20T08:00:39;98114.28;;;18.21;57.48
35443;BME280;21561;55.654;37.592;2023-07-20T08:03:06;98098.16;;;18.27;58.17
35443;BME280;21561;55.654;37.592;2023-07-20T08:05:34;98091.28;;;18.39;58.45
35443;BME280;21561;55.654;37.592;2023-07-20T08:08:02;98093.78;;;18.55;58.21
35443;BME280;21561;55.654;37.592;2023-07-20T08:10:30;98093.25;;;18.62;57.56
35443;BME280;21561;55.654;37.592;2023-07-20T08:12:57;98096.84;;;18.61;56.33
35443;BME280;21561;55.654;37.592;2023-07-20T08:15:24;98134.31;;;18.50;56.87
35443;BME280;21561;55.654;37.592;2023-07-20T08:17:51;98112.56;;;18.48;56.07
35443;BME280;21561;55.654;37.592;2023-07-20T08:20:19;98104.00;;;18.59;56.22
35443;BME280;21561;55.654;37.592;2023-07-20T08:22:46;98116.63;;;18.67;56.40
35443;BME280;21561;55.654;37.592;2023-07-20T08:25:14;98124.31;;;18.70;56.63
35443;BME280;21561;55.654;37.592;2023-07-20T08:27:41;98100.34;;;18.75;55.28
35443;BME280;21561;55.654;37.592;2023-07-20T08:30:08;98112.66;;;18.74;56.51
35443;BME280;21561;55.654;37.592;2023-07-20T08:32:36;98107.00;;;18.80;56.67
35443;BME280;21561;55.654;37.592;2023-07-20T08:35:03;98095.50;;;18.96;55.43
35443;BME280;21561;55.654;37.592;2023-07-20T08:37:30;98078.59;;;19.00;52.98
35443;BME280;21561;55.654;37.592;2023-07-20T08:39:57;98114.94;;;18.93;54.30
35443;BME280;21561;55.654;37.592;2023-07-20T08:42:24;98101.16;;;18.89;54.52
35443;BME280;21561;55.654;37.592;2023-07-20T08:44:52;98089.63;;;19.05;55.01
35443;BME280;21561;55.654;37.592;2023-07-20T08:47:20;98086.94;;;19.19;55.13
35443;BME280;21561;55.654;37.592;2023-07-20T08:49:50;98118.94;;;19.39;55.80
35443;BME280;21561;55.654;37.592;2023-07-20T08:52:17;98118.81;;;19.27;55.29
35443;BME280;21561;55.654;37.592;2023-07-20T08:54:44;98138.97;;;19.14;55.85
35443;BME280;21561;55.654;37.592;2023-07-20T08:57:13;98149.38;;;19.03;56.73
35443;BME280;21561;55.654;37.592;2023-07-20T08:59:41;98123.28;;;19.00;56.70
35443;BME280;21561;55.654;37.592;2023-07-20T09:02:13;98146.78;;;18.88;55.92
35443;BME280;21561;55.654;37.592;2023-07-20T09:04:45;98144.00;;;18.77;56.45
35443;BME280;21561;55.654;37.592;2023-07-20T09:07:13;98138.75;;;18.77;57.04
35443;BME280;21561;55.654;37.592;2023-07-20T09:09:41;98138.75;;;18.77;57.35
35443;BME280;21561;55.654;37.592;2023-07-20T09:12:15;98135.84;;;18.82;57.80
35443;BME280;21561;55.654;37.592;2023-07-20T09:14:43;98115.44;;;18.85;56.78
35443;BME280;21561;55.654;37.592;2023-07-20T09:17:14;98128.84;;;18.95;57.44
35443;BME280;21561;55.654;37.592;2023-07-20T09:19:50;98150.00;;;19.06;56.59
35443;BME280;21561;55.654;37.592;2023-07-20T09:22:17;98130.41;;;18.98;56.87
35443;BME280;21561;55.654;37.592;2023-07-20T09:24:44;98160.22;;;18.84;60.14
35443;BME280;21561;55.654;37.592;2023-07-20T09:27:12;98137.13;;;18.47;64.88
35443;BME280;21561;55.654;37.592;2023-07-20T09:29:53;98129.13;;;18.22;68.05
35443;BME280;21561;55.654;37.592;2023-07-20T09:32:21;98139.41;;;17.82;70.42
35443;BME280;21561;55.654;37.592;2023-07-20T09:34:51;98126.84;;;17.58;68.39
35443;BME280;21561;55.654;37.592;2023-07-20T09:37:23;98134.34;;;17.50;72.39
35443;BME280;21561;55.654;37.592;2023-07-20T09:39:51;98128.88;;;17.53;68.32
35443;BME280;21561;55.654;37.592;2023-07-20T09:42:22;98130.00;;;17.49;69.43
35443;BME280;21561;55.654;37.592;2023-07-20T09:44:52;98123.47;;;17.56;68.09
35443;BME280;21561;55.654;37.592;2023-07-20T09:47:23;98134.16;;;17.67;65.64
35443;BME280;21561;55.654;37.592;2023-07-20T09:49:58;98128.81;;;17.83;65.62
35443;BME280;21561;55.654;37.592;2023-07-20T09:52:33;98129.72;;;17.98;65.34
35443;BME280;21561;55.654;37.592;2023-07-20T09:55:04;98128.75;;;18.13;64.14
35443;BME280;21561;55.654;37.592;2023-07-20T09:57:33;98122.06;;;18.37;64.09
35443;BME280;21561;55.654;37.592;2023-07-20T10:00:02;98120.28;;;18.64;64.03
35443;BME280;21561;55.654;37.592;2023-07-20T10:02:41;98134.31;;;19.05;60.74
35443;BME280;21561;55.654;37.592;2023-07-20T10:05:12;98135.06;;;19.47;59.66
35443;BME280;21561;55.654;37.592;2023-07-20T10:07:45;98132.22;;;20.01;57.97
35443;BME280;21561;55.654;37.592;2023-07-20T10:10:18;98123.75;;;20.22;57.62
35443;BME280;21561;55.654;37.592;2023-07-20T10:12:49;98136.38;;;20.17;56.65
35443;BME280;21561;55.654;37.592;2023-07-20T10:15:32;98141.06;;;20.00;56.71
35443;BME280;21561;55.654;37.592;2023-07-20T10:20:40;98099.91;;;20.36;56.83
35443;BME280;21561;55.654;37.592;2023-07-20T10:23:13;98080.91;;;21.28;53.93
35443;BME280;21561;55.654;37.592;2023-07-20T10:25:40;98062.50;;;22.18;51.03
35443;BME280;21561;55.654;37.592;2023-07-20T10:28:10;98029.03;;;22.51;48.78
35443;BME280;21561;55.654;37.592;2023-07-20T10:30:37;98085.78;;;22.13;50.28
35443;BME280;21561;55.654;37.592;2023-07-20T10:33:05;98126.78;;;21.49;51.99
35443;BME280;21561;55.654;37.592;2023-07-20T10:36:02;98082.28;;;22.35;50.88
35443;BME280;21561;55.654;37.592;2023-07-20T10:38:39;98079.91;;;22.76;51.44
35443;BME280;21561;55.654;37.592;2023-07-20T10:41:37;98088.34;;;22.58;51.27
35443;BME280;21561;55.654;37.592;2023-07-20T10:44:08;98128.91;;;21.44;52.66
35443;BME280;21561;55.654;37.592;2023-07-20T10:49:07;98137.28;;;20.41;57.00
35443;BME280;21561;55.654;37.592;2023-07-20T10:51:48;98128.59;;;20.28;58.02
35443;BME280;21561;55.654;37.592;2023-07-20T10:56:44;98137.88;;;19.70;61.38
35443;BME280;21561;55.654;37.592;2023-07-20T10:59:36;98128.66;;;19.77;60.44
35443;BME280;21561;55.654;37.592;2023-07-20T11:02:08;98126.19;;;19.61;60.51
35443;BME280;21561;55.654;37.592;2023-07-20T11:04:42;98124.47;;;19.74;59.55
35443;BME280;21561;55.654;37.592;2023-07-20T11:07:09;98136.41;;;19.53;59.48
35443;BME280;21561;55.654;37.592;2023-07-20T11:09:38;98133.66;;;19.41;59.31
35443;BME280;21561;55.654;37.592;2023-07-20T11:12:14;98133.47;;;19.57;60.44
35443;BME280;21561;55.654;37.592;2023-07-20T11:14:55;98182.69;;;19.42;58.76
35443;BME280;21561;55.654;37.592;2023-07-20T11:17:32;98131.66;;;19.45;55.38
35443;BME280;21561;55.654;37.592;2023-07-20T11:20:01;98164.56;;;19.38;60.45
35443;BME280;21561;55.654;37.592;2023-07-20T11:22:32;98180.53;;;19.22;65.18
35443;BME280;21561;55.654;37.592;2023-07-20T11:24:59;98172.28;;;19.01;67.08
35443;BME280;21561;55.654;37.592;2023-07-20T11:27:26;98170.34;;;18.90;68.93
35443;BME280;21561;55.654;37.592;2023-07-20T11:29:55;98174.09;;;18.86;68.60
35443;BME280;21561;55.654;37.592;2023-07-20T11:32:23;98179.66;;;18.81;68.66
35443;BME280;21561;55.654;37.592;2023-07-20T11:34:51;98175.53;;;18.77;68.63
35443;BME280;21561;55.654;37.592;2023-07-20T11:37:18;98178.63;;;18.84;68.77
35443;BME280;21561;55.654;37.592;2023-07-20T11:39:46;98171.63;;;19.37;64.67
35443;BME280;21561;55.654;37.592;2023-07-20T11:42:14;98154.53;;;20.09;63.37
35443;BME280;21561;55.654;37.592;2023-07-20T11:45:03;98155.06;;;20.51;60.32
35443;BME280;21561;55.654;37.592;2023-07-20T11:47:32;98154.03;;;20.53;60.45
35443;BME280;21561;55.654;37.592;2023-07-20T11:50:03;98154.91;;;20.41;60.03
35443;BME280;21561;55.654;37.592;2023-07-20T11:52:32;98168.44;;;19.98;60.19
35443;BME280;21561;55.654;37.592;2023-07-20T11:55:00;98161.47;;;19.58;60.26
35443;BME280;21561;55.654;37.592;2023-07-20T11:57:30;98154.03;;;19.25;61.97
35443;BME280;21561;55.654;37.592;2023-07-20T12:00:00;98163.06;;;19.08;62.75
35443;BME280;21561;55.654;37.592;2023-07-20T12:02:37;98180.78;;;18.92;64.81
35443;BME280;21561;55.654;37.592;2023-07-20T12:05:05;98166.16;;;18.59;70.15
35443;BME280;21561;55.654;37.592;2023-07-20T12:07:35;98164.72;;;18.26;75.09
35443;BME280;21561;55.654;37.592;2023-07-20T12:12:33;98163.09;;;19.34;71.24
35443;BME280;21561;55.654;37.592;2023-07-20T12:15:22;98156.00;;;20.13;66.29
35443;BME280;21561;55.654;37.592;2023-07-20T12:17:51;98169.25;;;19.73;66.74
35443;BME280;21561;55.654;37.592;2023-07-20T12:20:32;98179.84;;;19.33;67.03
35443;BME280;21561;55.654;37.592;2023-07-20T12:23:11;98179.34;;;18.86;71.38
35443;BME280;21561;55.654;37.592;2023-07-20T12:25:42;98187.41;;;18.56;73.86
35443;BME280;21561;55.654;37.592;2023-07-20T12:28:12;98183.09;;;18.40;72.11
35443;BME280;21561;55.654;37.592;2023-07-20T12:30:41;98204.84;;;18.28;72.88
35443;BME280;21561;55.654;37.592;2023-07-20T12:33:08;98213.69;;;18.12;70.66
35443;BME280;21561;55.654;37.592;2023-07-20T12:35:36;98200.59;;;17.82;69.47
35443;BME280;21561;55.654;37.592;2023-07-20T12:38:06;98189.03;;;17.56;71.48
35443;BME280;21561;55.654;37.592;2023-07-20T12:40:33;98185.63;;;17.40;74.51
35443;BME280;21561;55.654;37.592;2023-07-20T12:43:00;98187.00;;;17.31;75.49
35443;BME280;21561;55.654;37.592;2023-07-20T12:45:27;98171.63;;;17.25;76.89
35443;BME280;21561;55.654;37.592;2023-07-20T12:47:55;98166.09;;;17.29;79.05
35443;BME280;21561;55.654;37.592;2023-07-20T12:50:21;98168.38;;;17.35;77.58
35443;BME280;21561;55.654;37.592;2023-07-20T12:52:48;98162.41;;;17.48;74.30
35443;BME280;21561;55.654;37.592;2023-07-20T12:55:15;98166.63;;;18.24;72.44
35443;BME280;21561;55.654;37.592;2023-07-20T12:57:43;98167.91;;;19.14;67.76
35443;BME280;21561;55.654;37.592;2023-07-20T13:00:10;98163.84;;;19.76;68.11
35443;BME280;21561;55.654;37.592;2023-07-20T13:02:38;98168.19;;;20.39;61.44
35443;BME280;21561;55.654;37.592;2023-07-20T13:05:05;98172.13;;;20.95;60.12
35443;BME280;21561;55.654;37.592;2023-07-20T13:07:37;98168.72;;;21.06;58.31
35443;BME280;21561;55.654;37.592;2023-07-20T13:10:09;98153.41;;;20.63;60.40
35443;BME280;21561;55.654;37.592;2023-07-20T13:12:37;98158.31;;;20.54;62.13
35443;BME280;21561;55.654;37.592;2023-07-20T13:15:08;98148.22;;;20.85;60.34
35443;BME280;21561;55.654;37.592;2023-07-20T13:17:37;98137.63;;;21.80;57.07
35443;BME280;21561;55.654;37.592;2023-07-20T13:20:06;98131.13;;;22.52;55.40